Time;durP1;ratioP1;P1;durP2;ratioP2;P2;SDS_P1;SDS_P2;PMS_P1;PMS_P2;Temp;Humidity;BMP_temperature;BMP_pressure;BME280_temperature;BME280_humidity;BME280_pressure;Samples;Min_cycle;Max_cycle;Signal;HPM_P1;HPM_P2
2024/04/05 00:01:16;;;;;;;17.15;2.30;;;12.50;99.90;;;;;;5040353;28;20231;-82
2024/04/05 00:03:42;;;;;;;15.83;2.30;;;12.40;99.90;;;;;;5039603;28;20175;-82
2024/04/05 00:06:08;;;;;;;21.73;3.07;;;12.50;99.90;;;;;;5039929;28;20490;-82
2024/04/05 00:08:37;;;;;;;16.03;2.40;;;12.40;99.90;;;;;;5058009;28;20246;-82
2024/04/05 00:11:03;;;;;;;14.70;2.10;;;12.40;99.90;;;;;;5039782;28;20173;-82
2024/04/05 00:13:29;;;;;;;18.23;2.08;;;12.30;99.90;;;;;;5057564;28;20593;-82
2024/04/05 00:16:01;;;;;;;17.93;2.30;;;12.30;99.90;;;;;;5057589;28;20215;-82
2024/04/05 00:18:29;;;;;;;24.60;3.05;;;12.30;99.90;;;;;;5057669;28;20181;-82
2024/04/05 00:20:55;;;;;;;16.17;2.10;;;12.20;99.90;;;;;;5039069;28;20639;-81
2024/04/05 00:23:20;;;;;;;20.20;2.87;;;12.20;99.90;;;;;;5057632;28;20414;-81
2024/04/05 00:25:46;;;;;;;17.03;3.23;;;12.10;99.90;;;;;;5057592;28;20175;-82
2024/04/05 00:28:12;;;;;;;13.20;1.90;;;12.10;99.90;;;;;;5039453;28;20189;-82
2024/04/05 00:30:37;;;;;;;14.60;2.67;;;12.10;99.90;;;;;;5057888;28;20165;-81
2024/04/05 00:33:03;;;;;;;20.47;2.20;;;12.00;99.90;;;;;;5039117;28;20231;-81
2024/04/05 00:35:29;;;;;;;18.27;2.40;;;12.00;99.90;;;;;;5057202;28;20252;-82
2024/04/05 00:37:55;;;;;;;18.65;2.63;;;12.00;99.90;;;;;;5057342;28;20410;-82
2024/04/05 00:40:21;;;;;;;16.20;2.47;;;12.10;99.90;;;;;;5057316;28;20527;-82
2024/04/05 00:42:48;;;;;;;17.03;2.63;;;12.10;99.90;;;;;;5057142;28;20420;-81
2024/04/05 00:45:14;;;;;;;14.80;2.00;;;12.00;99.90;;;;;;5057290;28;20169;-82
2024/04/05 00:47:40;;;;;;;16.37;2.23;;;12.00;99.90;;;;;;5058171;28;20626;-81
2024/04/05 00:50:06;;;;;;;17.10;2.40;;;12.10;99.90;;;;;;5057467;28;20403;-81
2024/04/05 00:52:32;;;;;;;18.42;2.17;;;12.00;99.90;;;;;;5056663;28;20568;-83
2024/04/05 00:54:59;;;;;;;20.30;2.08;;;12.00;99.90;;;;;;5022797;28;20174;-83
2024/04/05 00:57:25;;;;;;;19.27;2.40;;;12.00;99.90;;;;;;5038898;28;20168;-83
2024/04/05 00:59:50;;;;;;;13.97;1.73;;;12.00;99.90;;;;;;5039546;28;20620;-83
2024/04/05 01:02:16;;;;;;;14.07;1.90;;;12.00;99.90;;;;;;5038811;28;20510;-82
2024/04/05 01:04:43;;;;;;;15.57;1.70;;;12.00;99.90;;;;;;5056528;28;20204;-82
2024/04/05 01:07:10;;;;;;;16.73;2.30;;;12.00;99.90;;;;;;5039503;28;20420;-82
2024/04/05 01:09:36;;;;;;;16.75;2.30;;;12.00;99.90;;;;;;5039802;28;20165;-83
2024/04/05 01:12:02;;;;;;;16.37;1.93;;;11.90;99.90;;;;;;5043885;28;20193;-83
2024/04/05 01:14:27;;;;;;;14.47;1.90;;;11.80;99.90;;;;;;5063868;28;20404;-83
2024/04/05 01:16:53;;;;;;;16.93;2.30;;;11.80;99.90;;;;;;5063313;28;20403;-83
2024/04/05 01:19:19;;;;;;;15.60;2.23;;;11.80;99.90;;;;;;5063017;28;20180;-83
2024/04/05 01:21:49;;;;;;;15.25;1.80;;;11.80;99.90;;;;;;5045104;28;20215;-83
2024/04/05 01:24:14;;;;;;;17.92;2.83;;;11.80;99.90;;;;;;5051429;28;20197;-82
2024/04/05 01:26:40;;;;;;;14.53;1.80;;;11.80;99.90;;;;;;5069047;28;20183;-81
2024/04/05 01:29:06;;;;;;;17.30;2.47;;;11.80;99.90;;;;;;5069163;28;20684;-81
2024/04/05 01:31:31;;;;;;;17.13;2.43;;;11.80;99.90;;;;;;5069855;28;20427;-82
2024/04/05 01:33:57;;;;;;;15.83;1.90;;;11.70;99.90;;;;;;5052023;28;20169;-82
2024/04/05 01:36:23;;;;;;;18.33;2.27;;;11.80;99.90;;;;;;5064456;28;20196;-83
2024/04/05 01:38:48;;;;;;;17.20;2.47;;;11.80;99.90;;;;;;5059561;28;20180;-83
2024/04/05 01:41:14;;;;;;;24.40;2.50;;;11.80;99.90;;;;;;5057346;28;20192;-82
2024/04/05 01:43:40;;;;;;;14.50;1.63;;;11.80;99.90;;;;;;5056864;28;20173;-83
2024/04/05 01:46:05;;;;;;;16.53;2.93;;;11.80;99.90;;;;;;5057220;28;20177;-82
2024/04/05 01:48:31;;;;;;;16.83;2.37;;;11.80;99.90;;;;;;5056578;28;20192;-83
2024/04/05 01:50:56;;;;;;;18.40;2.20;;;11.80;99.90;;;;;;5056551;28;20677;-83
2024/04/05 01:53:22;;;;;;;16.70;2.10;;;11.80;99.90;;;;;;5056628;28;20189;-83
2024/04/05 01:55:48;;;;;;;16.63;2.07;;;11.80;99.90;;;;;;5038357;28;20646;-83
2024/04/05 01:58:13;;;;;;;16.73;2.33;;;11.80;99.90;;;;;;5055940;28;20165;-83
2024/04/05 02:00:39;;;;;;;15.70;2.07;;;11.80;99.90;;;;;;5055733;28;20176;-83
2024/04/05 02:03:05;;;;;;;16.00;2.33;;;11.80;99.90;;;;;;5055807;28;20185;-83
2024/04/05 02:05:31;;;;;;;15.32;2.45;;;11.80;99.90;;;;;;5056349;28;20173;-82
2024/04/05 02:07:57;;;;;;;18.07;2.83;;;11.70;99.90;;;;;;5055997;28;20669;-82
2024/04/05 02:10:22;;;;;;;16.33;2.20;;;11.70;99.90;;;;;;5057783;28;20165;-83
2024/04/05 02:12:48;;;;;;;17.00;2.43;;;11.70;99.90;;;;;;5059911;28;20258;-83
2024/04/05 02:15:14;;;;;;;14.70;2.13;;;11.70;99.90;;;;;;5060106;28;20175;-83
2024/04/05 02:17:42;;;;;;;20.80;3.80;;;11.70;99.90;;;;;;5059767;28;20218;-82
2024/04/05 02:20:08;;;;;;;14.43;2.10;;;11.70;99.90;;;;;;5060230;28;20173;-82
2024/04/05 02:22:34;;;;;;;21.42;2.60;;;11.60;99.90;;;;;;5059990;28;20191;-83
2024/04/05 02:25:00;;;;;;;16.47;2.00;;;11.60;99.90;;;;;;5059625;28;20259;-83
2024/04/05 02:27:26;;;;;;;19.13;2.60;;;11.60;99.90;;;;;;5059791;28;20666;-83
2024/04/05 02:29:52;;;;;;;24.00;2.57;;;11.60;99.90;;;;;;5059396;28;20187;-83
2024/04/05 02:32:17;;;;;;;19.40;2.60;;;11.70;99.90;;;;;;5059366;28;20181;-83
2024/04/05 02:34:43;;;;;;;20.70;2.10;;;11.60;99.90;;;;;;5041709;28;20169;-83
2024/04/05 02:37:08;;;;;;;15.40;2.30;;;11.60;99.90;;;;;;5059494;28;20168;-83
2024/04/05 02:39:34;;;;;;;17.57;2.57;;;11.60;99.90;;;;;;5041433;28;20232;-83
2024/04/05 02:42:00;;;;;;;18.33;2.80;;;11.60;99.90;;;;;;5059753;28;20220;-83
2024/04/05 02:44:25;;;;;;;15.83;1.83;;;11.60;99.90;;;;;;5059605;28;20157;-83
2024/04/05 02:46:52;;;;;;;15.37;2.33;;;11.50;99.90;;;;;;5059732;28;20161;-83
2024/04/05 02:49:18;;;;;;;20.77;3.88;;;11.50;99.90;;;;;;5059407;28;20212;-83
2024/04/05 02:51:43;;;;;;;16.70;2.47;;;11.50;99.90;;;;;;5041131;28;20629;-82
2024/04/05 02:54:09;;;;;;;17.40;2.27;;;11.50;99.90;;;;;;5059331;28;20685;-83
2024/04/05 02:56:35;;;;;;;17.10;2.30;;;11.40;99.90;;;;;;5059707;28;20161;-82
2024/04/05 02:59:01;;;;;;;17.50;2.47;;;11.40;99.90;;;;;;5059508;28;20161;-83
2024/04/05 03:01:26;;;;;;;17.87;2.53;;;11.40;99.90;;;;;;5059248;28;20426;-82
2024/04/05 03:03:52;;;;;;;15.33;1.90;;;11.40;99.90;;;;;;5059501;28;20430;-82
2024/04/05 03:06:20;;;;;;;20.13;2.60;;;11.40;99.90;;;;;;5041853;28;20684;-83
2024/04/05 03:08:46;;;;;;;17.35;2.55;;;11.40;99.90;;;;;;5059516;28;20242;-83
2024/04/05 03:11:12;;;;;;;20.67;2.45;;;11.30;99.90;;;;;;5059096;28;20583;-82
2024/04/05 03:13:38;;;;;;;24.00;3.63;;;11.40;99.90;;;;;;5058685;28;20165;-83
2024/04/05 03:16:04;;;;;;;15.32;2.63;;;11.40;99.90;;;;;;5041352;28;20165;-83
2024/04/05 03:18:31;;;;;;;19.50;3.00;;;11.40;99.90;;;;;;5059605;28;20230;-83
2024/04/05 03:20:57;;;;;;;22.58;3.10;;;11.40;99.90;;;;;;5057854;28;20997;-83
2024/04/05 03:23:23;;;;;;;18.50;2.50;;;11.40;99.90;;;;;;5058780;28;20192;-82
2024/04/05 03:25:49;;;;;;;21.40;3.47;;;11.40;99.90;;;;;;5058932;28;20166;-82
2024/04/05 03:28:15;;;;;;;19.23;3.05;;;11.40;99.90;;;;;;5059058;28;20199;-82
2024/04/05 03:30:41;;;;;;;15.30;2.30;;;11.50;99.90;;;;;;5058941;28;20161;-82
2024/04/05 03:33:07;;;;;;;15.27;2.90;;;11.50;99.90;;;;;;5040875;28;20192;-83
2024/04/05 03:35:36;;;;;;;16.27;2.33;;;11.50;99.90;;;;;;5060505;28;20240;-82
2024/04/05 03:38:02;;;;;;;23.25;2.95;;;11.50;99.90;;;;;;5059065;28;20171;-82
2024/04/05 03:40:28;;;;;;;15.13;3.20;;;11.50;99.90;;;;;;5058427;28;20537;-83
2024/04/05 03:42:53;;;;;;;15.37;2.23;;;11.50;99.90;;;;;;5058628;28;20185;-82
2024/04/05 03:45:19;;;;;;;16.20;2.50;;;11.50;99.90;;;;;;5058697;28;20638;-83
2024/04/05 03:47:45;;;;;;;15.17;2.33;;;11.60;99.90;;;;;;5059042;28;20672;-83
2024/04/05 03:50:10;;;;;;;20.00;2.83;;;11.60;99.90;;;;;;5058435;28;20169;-83
2024/04/05 03:52:36;;;;;;;16.50;3.20;;;11.60;99.90;;;;;;5059126;28;20181;-82
2024/04/05 03:55:04;;;;;;;19.67;2.55;;;11.60;99.90;;;;;;5058750;28;20507;-83
2024/04/05 03:57:30;;;;;;;18.15;2.40;;;11.60;99.90;;;;;;5058635;28;20172;-83
2024/04/05 03:59:55;;;;;;;15.27;2.53;;;11.60;99.90;;;;;;5059593;28;20165;-82
2024/04/05 04:02:23;;;;;;;15.67;2.40;;;11.60;99.90;;;;;;5058251;28;20189;-82
2024/04/05 04:04:49;;;;;;;14.95;1.90;;;11.60;99.90;;;;;;5058663;28;20165;-82
2024/04/05 04:07:15;;;;;;;17.50;2.28;;;11.60;99.90;;;;;;5057649;28;20158;-83
2024/04/05 04:09:40;;;;;;;16.60;2.53;;;11.60;99.90;;;;;;5039867;28;20673;-82
2024/04/05 04:12:06;;;;;;;16.00;2.17;;;11.60;99.90;;;;;;5057761;28;20423;-83
2024/04/05 04:14:32;;;;;;;15.93;1.80;;;11.70;99.90;;;;;;5058643;28;20165;-83
2024/04/05 04:16:58;;;;;;;20.47;2.80;;;11.60;99.90;;;;;;5040185;28;20768;-82
2024/04/05 04:19:23;;;;;;;18.83;2.50;;;11.70;99.90;;;;;;5058434;28;20231;-82
2024/04/05 04:21:53;;;;;;;16.83;2.00;;;11.70;99.90;;;;;;5057571;28;20729;-83
2024/04/05 04:24:19;;;;;;;15.02;1.95;;;11.70;99.90;;;;;;5057401;28;20200;-83
2024/04/05 04:26:45;;;;;;;19.70;3.95;;;11.60;99.90;;;;;;5057671;28;20224;-83
2024/04/05 04:29:11;;;;;;;19.67;2.75;;;11.60;99.90;;;;;;5039300;28;20200;-83
2024/04/05 04:31:39;;;;;;;18.93;2.43;;;11.60;99.90;;;;;;5057984;28;20215;-83
2024/04/05 04:34:05;;;;;;;16.67;2.45;;;11.60;99.90;;;;;;5039551;28;20165;-83
2024/04/05 04:36:31;;;;;;;21.13;2.73;;;11.70;99.90;;;;;;5039827;28;20165;-82
2024/04/05 04:38:57;;;;;;;13.77;1.90;;;11.70;99.90;;;;;;5040343;28;20169;-82
2024/04/05 04:41:22;;;;;;;18.80;2.80;;;11.70;99.90;;;;;;5056821;28;20430;-82
2024/04/05 04:43:48;;;;;;;17.87;2.87;;;11.70;99.90;;;;;;5038812;28;20169;-82
2024/04/05 04:46:16;;;;;;;14.03;2.17;;;11.70;99.90;;;;;;5056862;28;20165;-82
2024/04/05 04:48:42;;;;;;;17.02;2.50;;;11.70;99.90;;;;;;5056386;28;20189;-81
2024/04/05 04:51:09;;;;;;;16.93;2.50;;;11.70;99.90;;;;;;5055785;28;20161;-81
2024/04/05 04:53:34;;;;;;;15.55;2.20;;;11.70;99.90;;;;;;5056981;28;20160;-82
2024/04/05 04:56:00;;;;;;;15.10;2.20;;;11.80;99.90;;;;;;5056655;28;20638;-81
2024/04/05 04:58:29;;;;;;;23.47;2.37;;;11.80;99.90;;;;;;5037433;28;20173;-81
2024/04/05 05:00:58;;;;;;;15.20;2.90;;;11.80;99.90;;;;;;5055607;28;20161;-81
2024/04/05 05:03:24;;;;;;;21.02;2.97;;;11.80;99.90;;;;;;5055805;28;20234;-81
2024/04/05 05:05:50;;;;;;;18.70;2.30;;;11.80;99.90;;;;;;5055571;28;20160;-81
2024/04/05 05:08:15;;;;;;;19.67;2.85;;;11.80;99.90;;;;;;5037315;28;20455;-81
2024/04/05 05:10:42;;;;;;;18.00;2.53;;;11.80;99.90;;;;;;5055491;28;20234;-81
2024/04/05 05:13:14;;;;;;;17.08;2.72;;;11.80;99.90;;;;;;5038171;28;20422;-81
2024/04/05 05:15:44;;;;;;;19.90;2.78;;;11.80;99.90;;;;;;5037710;28;20168;-81
2024/04/05 05:18:14;;;;;;;14.75;3.10;;;11.80;99.90;;;;;;5095429;23;20661;-81
2024/04/05 05:20:47;;;;;;;16.60;3.10;;;11.80;99.90;;;;;;5017392;28;20204;-82
2024/04/05 05:23:13;;;;;;;19.90;2.50;;;11.90;99.90;;;;;;5035386;28;20289;-81
2024/04/05 05:25:40;;;;;;;24.13;2.67;;;11.90;99.90;;;;;;5016648;28;20197;-81
2024/04/05 05:28:06;;;;;;;22.23;3.17;;;11.90;99.90;;;;;;5034898;28;21047;-82
2024/04/05 05:30:32;;;;;;;16.05;2.60;;;11.90;99.90;;;;;;5017209;28;20178;-81
2024/04/05 05:32:58;;;;;;;15.00;2.60;;;12.00;99.90;;;;;;5036015;28;20182;-81
2024/04/05 05:35:23;;;;;;;14.90;2.40;;;12.00;99.90;;;;;;5039498;28;20197;-82
2024/04/05 05:37:50;;;;;;;14.40;2.70;;;12.00;99.90;;;;;;5111221;22;20225;-82
2024/04/05 05:40:15;;;;;;;15.60;2.40;;;12.00;99.90;;;;;;5021900;28;20778;-82
2024/04/05 05:42:41;;;;;;;17.10;2.73;;;12.10;99.90;;;;;;5022129;28;20190;-82
2024/04/05 05:45:07;;;;;;;17.83;3.17;;;12.10;99.90;;;;;;5021782;28;20162;-82
2024/04/05 05:47:35;;;;;;;20.37;4.07;;;12.10;99.90;;;;;;5040013;28;20217;-83
2024/04/05 05:50:01;;;;;;;14.57;2.75;;;12.10;99.90;;;;;;5039066;28;20169;-82
2024/04/05 05:52:27;;;;;;;23.33;2.93;;;12.10;99.90;;;;;;5020864;28;20185;-82
2024/04/05 05:55:25;;;;;;;15.57;2.30;;;12.10;99.90;;;;;;5039072;28;20926;-83
2024/04/05 05:57:56;;;;;;;23.80;2.70;;;12.20;99.90;;;;;;4954230;28;20174;-83
2024/04/05 06:00:22;;;;;;;14.88;2.20;;;12.20;99.90;;;;;;5039098;28;20145;-82
2024/04/05 06:02:48;;;;;;;16.85;2.85;;;12.20;99.90;;;;;;5020286;28;20189;-82
2024/04/05 06:05:20;;;;;;;18.40;2.27;;;12.20;99.90;;;;;;5038542;28;20184;-82
2024/04/05 06:07:47;;;;;;;22.23;2.53;;;12.30;99.90;;;;;;5039609;28;20189;-83
2024/04/05 06:10:13;;;;;;;18.98;2.83;;;12.30;99.90;;;;;;5040064;28;20186;-82
2024/04/05 06:12:41;;;;;;;19.23;2.80;;;12.40;99.90;;;;;;5038164;28;20598;-83
2024/04/05 06:15:13;;;;;;;19.17;2.95;;;12.50;99.90;;;;;;5020524;28;20416;-83
2024/04/05 06:17:38;;;;;;;15.75;2.42;;;12.60;99.90;;;;;;5038259;28;20208;-82
2024/04/05 06:20:10;;;;;;;16.30;2.63;;;12.70;99.90;;;;;;5019120;28;20169;-83
2024/04/05 06:23:12;;;;;;;26.02;3.28;;;12.80;99.90;;;;;;5018266;28;20206;-83
2024/04/05 06:25:59;;;;;;;;;;;;;;;;;;;;;
2024/04/05 06:28:26;;;;;;;17.67;2.85;;;12.90;99.90;;;;;;5035222;28;20202;-83
2024/04/05 06:30:52;;;;;;;19.95;3.35;;;13.00;99.90;;;;;;5034648;28;20166;-83
2024/04/05 06:33:18;;;;;;;19.53;3.43;;;13.10;99.90;;;;;;5017066;28;20166;-83
2024/04/05 06:35:44;;;;;;;16.67;3.13;;;13.10;99.90;;;;;;5034375;28;20396;-82
2024/04/05 06:38:10;;;;;;;21.17;3.47;;;13.10;99.90;;;;;;5016442;28;20231;-83
2024/04/05 06:40:37;;;;;;;14.57;2.47;;;13.20;99.90;;;;;;5035114;28;20416;-82
2024/04/05 06:43:06;;;;;;;20.73;2.80;;;13.20;99.90;;;;;;5034429;28;20217;-83
2024/04/05 06:45:32;;;;;;;13.80;2.40;;;13.20;99.90;;;;;;5034612;28;20166;-83
2024/04/05 06:48:01;;;;;;;17.05;3.25;;;13.20;99.90;;;;;;5034625;28;20292;-83
2024/04/05 06:50:30;;;;;;;17.88;2.60;;;13.30;99.90;;;;;;5034422;28;20228;-82
2024/04/05 06:52:59;;;;;;;15.63;2.70;;;13.40;99.90;;;;;;5016642;28;20174;-82
2024/04/05 06:55:26;;;;;;;26.95;3.78;;;13.40;99.90;;;;;;5035179;28;20658;-83
2024/04/05 06:57:52;;;;;;;16.13;2.53;;;13.40;99.90;;;;;;5039009;28;20616;-83
2024/04/05 07:00:26;;;;;;;15.90;2.13;;;13.50;99.90;;;;;;5020516;28;20166;-83
2024/04/05 07:02:52;;;;;;;16.57;2.53;;;13.60;99.90;;;;;;5038131;28;20424;-82
2024/04/05 07:05:18;;;;;;;16.87;2.27;;;13.60;99.90;;;;;;5020766;28;20474;-82
2024/04/05 07:07:44;;;;;;;14.90;2.40;;;13.70;99.90;;;;;;5020622;28;20224;-82
2024/04/05 07:10:10;;;;;;;21.67;2.30;;;13.70;99.90;;;;;;5039697;28;20154;-83
2024/04/05 07:12:35;;;;;;;13.93;2.00;;;13.70;99.90;;;;;;5045431;28;20461;-83
2024/04/05 07:15:05;;;;;;;16.73;2.03;;;13.70;99.90;;;;;;5046008;28;20172;-83
2024/04/05 07:17:31;;;;;;;17.80;2.70;;;13.70;99.90;;;;;;5044426;28;20166;-83
2024/04/05 07:19:57;;;;;;;19.47;3.03;;;13.70;99.90;;;;;;5045414;28;20492;-83
2024/04/05 07:22:22;;;;;;;16.63;2.30;;;13.70;99.90;;;;;;5044698;28;20455;-83
2024/04/05 07:24:58;;;;;;;18.60;2.30;;;13.70;99.90;;;;;;5044736;28;20166;-84
2024/04/05 07:27:24;;;;;;;14.50;2.63;;;13.80;99.90;;;;;;5043478;28;20636;-83
2024/04/05 07:29:49;;;;;;;15.03;2.37;;;13.90;99.90;;;;;;5043989;28;20245;-83
2024/04/05 07:32:15;;;;;;;18.10;2.50;;;13.90;99.90;;;;;;5045611;28;20190;-83
2024/04/05 07:34:41;;;;;;;13.43;1.77;;;14.00;99.90;;;;;;5044518;28;20166;-83
2024/04/05 07:37:07;;;;;;;15.43;1.90;;;14.10;99.90;;;;;;5045182;28;20701;-83
2024/04/05 07:39:38;;;;;;;19.70;2.40;;;14.20;99.90;;;;;;5043617;28;20245;-83
2024/04/05 07:42:04;;;;;;;25.33;2.00;;;14.30;99.90;;;;;;5026196;28;20436;-83
2024/04/05 07:44:29;;;;;;;19.90;2.80;;;14.30;99.90;;;;;;5043367;28;20496;-83
2024/04/05 07:46:55;;;;;;;14.47;2.30;;;14.40;99.90;;;;;;5043412;28;20259;-83
2024/04/05 07:49:20;;;;;;;14.30;1.87;;;14.50;99.90;;;;;;5042414;28;20209;-83
2024/04/05 07:56:43;;;;;;;13.40;2.13;;;14.70;99.90;;;;;;5024741;28;20453;-83
2024/04/05 07:59:10;;;;;;;23.47;2.60;;;14.70;99.90;;;;;;5024867;28;20405;-83
2024/04/05 08:01:36;;;;;;;14.57;2.40;;;14.80;99.90;;;;;;5004241;28;20484;-83
2024/04/05 08:04:02;;;;;;;15.70;1.93;;;14.90;99.90;;;;;;5003427;28;20406;-82
2024/04/05 08:06:27;;;;;;;14.03;1.70;;;14.90;99.90;;;;;;5019957;28;20405;-82
2024/04/05 08:08:53;;;;;;;17.47;1.80;;;14.90;99.90;;;;;;5019183;28;21084;-82
2024/04/05 08:11:19;;;;;;;14.07;1.80;;;14.80;99.90;;;;;;5020066;28;20587;-82
2024/04/05 08:13:44;;;;;;;20.90;2.10;;;14.80;99.90;;;;;;5019494;28;20170;-82
2024/04/05 08:16:10;;;;;;;14.13;1.83;;;14.70;99.90;;;;;;5020223;28;20170;-83
2024/04/05 08:18:36;;;;;;;16.07;2.30;;;14.60;99.90;;;;;;5018151;28;20536;-82
2024/04/05 08:21:05;;;;;;;13.93;1.73;;;14.60;99.90;;;;;;5017661;28;20632;-82
2024/04/05 08:23:31;;;;;;;27.23;2.43;;;14.60;99.90;;;;;;5018377;28;20582;-83
2024/04/05 08:25:56;;;;;;;15.50;1.37;;;14.60;99.90;;;;;;5001139;28;20418;-83
2024/04/05 08:28:22;;;;;;;17.93;1.70;;;14.60;99.90;;;;;;5019087;28;20584;-83
2024/04/05 08:30:51;;;;;;;17.00;1.97;;;14.60;99.90;;;;;;5019089;28;20167;-83
2024/04/05 08:33:57;;;;;;;14.33;1.63;;;14.60;99.90;;;;;;5000738;28;20639;-83
2024/04/05 08:36:26;;;;;;;14.60;1.40;;;14.60;99.90;;;;;;4979294;28;20453;-83
2024/04/05 08:39:01;;;;;;;19.67;1.93;;;14.70;99.90;;;;;;5018847;28;20899;-83
2024/04/05 08:41:31;;;;;;;12.40;1.40;;;14.70;99.90;;;;;;5019490;28;20424;-83
2024/04/05 08:43:59;;;;;;;17.60;1.80;;;14.70;99.90;;;;;;5018463;28;20389;-83
2024/04/05 08:46:25;;;;;;;17.20;1.93;;;14.70;99.90;;;;;;5019126;28;20410;-83
2024/04/05 08:48:53;;;;;;;16.73;1.67;;;14.70;99.90;;;;;;5022499;28;20445;-83
2024/04/05 08:51:19;;;;;;;15.10;1.60;;;14.80;99.90;;;;;;5024053;28;20429;-83
2024/04/05 08:53:45;;;;;;;16.83;2.00;;;14.80;99.90;;;;;;5007626;28;20475;-83
2024/04/05 08:56:10;;;;;;;14.50;1.90;;;14.90;99.90;;;;;;5007169;28;20459;-84
2024/04/05 08:58:37;;;;;;;21.23;2.07;;;15.10;99.90;;;;;;5006552;28;20178;-83
2024/04/05 09:01:07;;;;;;;16.77;2.03;;;15.20;99.90;;;;;;5024340;28;20444;-83
2024/04/05 09:03:33;;;;;;;15.60;1.80;;;15.30;99.90;;;;;;5023940;28;20764;-83
2024/04/05 09:05:58;;;;;;;13.97;1.37;;;15.30;99.90;;;;;;5006057;28;20504;-83
2024/04/05 09:08:24;;;;;;;17.20;2.10;;;15.40;99.90;;;;;;5025040;28;20659;-83
2024/04/05 09:10:53;;;;;;;16.63;1.87;;;15.40;99.90;;;;;;5022269;28;20169;-83
2024/04/05 09:13:22;;;;;;;13.87;1.80;;;15.50;99.90;;;;;;5024324;28;20155;-83
2024/04/05 09:15:52;;;;;;;13.80;1.83;;;15.60;99.90;;;;;;5024158;28;20432;-83
2024/04/05 09:18:27;;;;;;;15.63;1.47;;;15.80;99.90;;;;;;5005466;28;20799;-83
2024/04/05 09:20:53;;;;;;;19.50;1.83;;;15.90;99.90;;;;;;5023546;28;20432;-83
2024/04/05 09:23:18;;;;;;;22.77;2.30;;;16.10;99.90;;;;;;5023245;28;20413;-83
2024/04/05 09:25:44;;;;;;;19.90;2.97;;;16.30;99.90;;;;;;5007468;28;20237;-83
2024/04/05 09:28:14;;;;;;;14.63;1.57;;;16.30;99.90;;;;;;5022908;28;20193;-83
2024/04/05 09:33:08;;;;;;;15.23;1.80;;;16.40;99.90;;;;;;5021884;28;20465;-83
2024/04/05 09:35:38;;;;;;;17.10;2.03;;;16.40;99.90;;;;;;5005137;28;20429;-82
2024/04/05 09:38:04;;;;;;;17.07;1.83;;;16.30;99.90;;;;;;5019895;28;20170;-82
2024/04/05 09:40:35;;;;;;;14.33;1.63;;;16.20;99.90;;;;;;5018233;28;20433;-82
2024/04/05 09:43:03;;;;;;;21.13;2.60;;;16.20;99.90;;;;;;5016920;28;21012;-83
2024/04/05 09:45:31;;;;;;;14.20;1.53;;;16.10;99.90;;;;;;5000175;28;20464;-82
2024/04/05 09:47:57;;;;;;;14.90;2.10;;;16.10;99.90;;;;;;5018917;28;20557;-82
2024/04/05 09:50:23;;;;;;;14.50;1.90;;;16.00;99.90;;;;;;4999732;28;20947;-82
2024/04/05 09:52:52;;;;;;;14.77;1.60;;;16.00;99.90;;;;;;4999923;28;20243;-82
2024/04/05 09:55:23;;;;;;;14.00;1.40;;;16.10;99.90;;;;;;5001032;28;20252;-82
2024/04/05 09:57:49;;;;;;;16.10;2.00;;;16.10;99.90;;;;;;5017318;28;20382;-82
2024/04/05 10:00:20;;;;;;;16.97;2.03;;;16.10;99.90;;;;;;5017085;28;20405;-82
2024/04/05 10:02:49;;;;;;;14.23;2.20;;;16.20;99.90;;;;;;5017524;28;20421;-82
2024/04/05 10:05:33;;;;;;;13.30;1.87;;;16.20;99.90;;;;;;5018192;28;20414;-82
2024/04/05 10:08:10;;;;;;;20.70;2.60;;;16.30;99.90;;;;;;5000943;28;20453;-82
2024/04/05 10:10:36;;;;;;;15.50;1.70;;;16.40;99.90;;;;;;5018818;28;20411;-82
2024/04/05 10:13:14;;;;;;;13.77;1.87;;;16.50;99.90;;;;;;5017678;28;20418;-82
2024/04/05 10:15:54;;;;;;;16.17;2.10;;;16.50;99.90;;;;;;5018167;28;20440;-82
2024/04/05 10:18:27;;;;;;;15.17;1.60;;;16.50;99.90;;;;;;5019303;28;20389;-82
2024/04/05 10:21:08;;;;;;;22.10;2.50;;;16.60;99.90;;;;;;5020198;28;20389;-82
2024/04/05 10:23:35;;;;;;;14.77;1.90;;;16.50;99.90;;;;;;5002786;28;20484;-82
2024/04/05 10:26:01;;;;;;;13.10;1.53;;;16.60;99.90;;;;;;5021433;28;20414;-82
2024/04/05 10:28:30;;;;;;;15.30;1.90;;;16.50;99.90;;;;;;5028238;28;20431;-82
2024/04/05 10:31:00;;;;;;;14.20;1.73;;;16.50;99.90;;;;;;5012765;28;20418;-83
2024/04/05 10:33:26;;;;;;;16.70;1.53;;;16.50;99.90;;;;;;5032291;28;20397;-83
2024/04/05 10:35:58;;;;;;;13.83;1.87;;;16.50;99.90;;;;;;5015496;28;20424;-82
2024/04/05 10:38:23;;;;;;;15.80;1.70;;;16.40;99.90;;;;;;5015199;28;20170;-83
2024/04/05 10:40:59;;;;;;;16.37;2.33;;;16.30;99.90;;;;;;5033367;28;20814;-83
2024/04/05 10:43:25;;;;;;;15.63;2.47;;;16.40;99.90;;;;;;5033078;28;20166;-83
2024/04/05 10:45:55;;;;;;;15.40;2.00;;;16.50;99.90;;;;;;5015305;28;20417;-83
2024/04/05 10:48:22;;;;;;;18.93;2.23;;;16.50;99.90;;;;;;5032851;28;20508;-83
2024/04/05 10:50:48;;;;;;;14.20;1.43;;;16.60;99.90;;;;;;5032570;28;20398;-83
2024/04/05 10:53:18;;;;;;;15.33;1.53;;;16.80;99.90;;;;;;5032275;28;20421;-83
2024/04/05 10:55:51;;;;;;;15.97;1.30;;;16.90;99.90;;;;;;5030971;28;20740;-83
2024/04/05 10:58:17;;;;;;;16.03;1.70;;;17.00;99.90;;;;;;5030297;28;20405;-83
2024/04/05 11:00:58;;;;;;;12.77;1.20;;;17.10;99.90;;;;;;5029678;28;20417;-83
2024/04/05 11:03:27;;;;;;;17.03;1.37;;;17.10;99.90;;;;;;5029816;28;20401;-83
2024/04/05 11:06:02;;;;;;;15.83;1.57;;;17.10;99.90;;;;;;5030670;28;20405;-82
2024/04/05 11:08:28;;;;;;;14.40;1.50;;;17.20;99.90;;;;;;5014365;28;20856;-83
2024/04/05 11:10:55;;;;;;;14.23;1.67;;;17.20;99.90;;;;;;5030192;28;20406;-83
2024/04/05 11:13:26;;;;;;;13.40;1.23;;;17.20;99.90;;;;;;5029244;28;20159;-83
2024/04/05 11:16:02;;;;;;;15.83;1.43;;;17.20;99.90;;;;;;5009448;28;20413;-82
2024/04/05 11:18:34;;;;;;;14.43;1.30;;;17.30;98.40;;;;;;5048291;23;20491;-84
2024/04/05 11:21:01;;;;;;;12.33;1.30;;;17.30;71.10;;;;;;5041351;28;20369;-84
2024/04/05 11:23:27;;;;;;;13.07;1.30;;;17.40;48.40;;;;;;5024191;28;20408;-84
2024/04/05 11:25:54;;;;;;;12.40;1.20;;;17.30;1.00;;;;;;5040503;28;20955;-84
2024/04/05 11:28:23;;;;;;;14.07;1.37;;;17.30;1.00;;;;;;5021900;28;20450;-84
2024/04/05 11:30:50;;;;;;;13.00;1.20;;;17.30;1.00;;;;;;5022747;28;20430;-84
2024/04/05 11:33:16;;;;;;;13.07;1.23;;;17.30;1.00;;;;;;5022770;28;20451;-84
2024/04/05 11:35:43;;;;;;;14.10;1.40;;;17.30;1.00;;;;;;5039194;28;20766;-85
2024/04/05 11:38:09;;;;;;;12.27;1.10;;;17.30;1.00;;;;;;5040009;28;20162;-84
2024/04/05 11:40:34;;;;;;;14.20;1.50;;;17.30;1.00;;;;;;5040249;28;20413;-85
2024/04/05 11:43:01;;;;;;;14.90;1.47;;;17.30;1.00;;;;;;5021422;28;20220;-84
2024/04/05 11:45:27;;;;;;;16.10;1.23;;;17.30;1.00;;;;;;5040901;28;20256;-84
2024/04/05 11:47:54;;;;;;;14.00;1.77;;;17.40;1.00;;;;;;5040564;28;20957;-84
2024/04/05 11:50:19;;;;;;;12.60;1.40;;;17.50;1.00;;;;;;5021859;28;20404;-85
2024/04/05 11:52:45;;;;;;;16.83;1.87;;;17.70;1.00;;;;;;5040154;28;20435;-85
2024/04/05 11:55:11;;;;;;;18.43;1.50;;;17.80;1.00;;;;;;5022225;28;20635;-84
2024/04/05 11:57:37;;;;;;;14.93;2.10;;;17.90;1.00;;;;;;5038936;28;20652;-84
2024/04/05 12:00:10;;;;;;;13.63;1.67;;;17.90;1.00;;;;;;5038108;28;20412;-84
2024/04/05 12:02:41;;;;;;;12.83;1.10;;;18.00;1.00;;;;;;5042424;28;20209;-87
2024/04/05 12:05:13;;;;;;;13.93;1.57;;;17.90;1.00;;;;;;5024670;28;20440;-86
2024/04/05 12:07:43;;;;;;;13.37;1.40;;;17.90;1.00;;;;;;5044431;28;20750;-87
2024/04/05 12:10:10;;;;;;;14.17;1.50;;;17.90;1.00;;;;;;5027524;28;20408;-87
2024/04/05 12:12:39;;;;;;;12.47;1.10;;;17.90;1.00;;;;;;5049458;28;20420;-87
2024/04/05 12:15:08;;;;;;;13.53;1.40;;;17.90;1.00;;;;;;5035115;28;20412;-87
2024/04/05 12:17:39;;;;;;;14.17;1.40;;;17.90;1.00;;;;;;5029156;28;20497;-87
2024/04/05 12:20:12;;;;;;;14.13;1.30;;;17.80;1.00;;;;;;5051019;28;20385;-87
2024/04/05 12:22:41;;;;;;;14.60;1.80;;;17.80;1.00;;;;;;5029153;28;20456;-87
2024/04/05 12:25:07;;;;;;;12.43;1.03;;;17.80;1.00;;;;;;5023521;28;20404;-84
2024/04/05 12:27:33;;;;;;;17.30;1.50;;;17.80;1.00;;;;;;5040777;28;20439;-84
2024/04/05 12:29:59;;;;;;;12.93;1.40;;;17.80;1.00;;;;;;5041576;28;20150;-85
2024/04/05 12:32:25;;;;;;;12.63;1.30;;;17.80;1.00;;;;;;5038586;28;20431;-85
2024/04/05 12:34:52;;;;;;;14.63;1.83;;;17.90;1.00;;;;;;5039234;28;20154;-84
2024/04/05 12:37:27;;;;;;;13.50;1.47;;;17.90;1.00;;;;;;5038748;28;20154;-85
2024/04/05 12:39:54;;;;;;;13.10;1.23;;;17.90;1.00;;;;;;5039360;28;20388;-85
2024/04/05 12:42:21;;;;;;;13.13;1.30;;;17.90;1.00;;;;;;5039215;28;20429;-85
2024/04/05 12:44:48;;;;;;;12.50;1.23;;;17.90;1.00;;;;;;5039637;28;20397;-85
2024/04/05 12:47:24;;;;;;;17.70;1.53;;;17.90;1.00;;;;;;5038947;28;20408;-85